Time;durP1;ratioP1;P1;durP2;ratioP2;P2;SDS_P1;SDS_P2;PMS_P1;PMS_P2;Temp;Humidity;BMP_temperature;BMP_pressure;BME280_temperature;BME280_humidity;BME280_pressure;Samples;Min_cycle;Max_cycle;Signal;HPM_P1;HPM_P2
2023/06/26 00:00:23;;;;;;;11.00;6.20;;;;;;;17.76;nan;100346.31;5036369;28;20079;-72
2023/06/26 00:02:48;;;;;;;9.57;6.53;;;;;;;17.82;nan;100358.59;5038134;28;20025;-72
2023/06/26 00:05:13;;;;;;;10.18;6.95;;;;;;;17.77;nan;100353.25;5039331;28;20096;-72
2023/06/26 00:07:39;;;;;;;9.27;6.55;;;;;;;17.73;nan;100362.84;5035900;28;20032;-71
2023/06/26 00:10:05;;;;;;;11.10;7.07;;;;;;;17.70;nan;100357.28;5036125;28;20111;-71
2023/06/26 00:12:31;;;;;;;10.43;6.35;;;;;;;17.56;nan;100349.88;5038739;28;20043;-71
2023/06/26 00:14:57;;;;;;;12.40;6.75;;;;;;;17.64;nan;100354.63;5036633;28;20009;-71
2023/06/26 00:17:22;;;;;;;12.13;7.03;;;;;;;17.48;nan;100339.81;5035774;28;20025;-70
2023/06/26 00:19:48;;;;;;;13.25;7.18;;;;;;;17.55;nan;100356.28;5036972;28;20059;-70
2023/06/26 00:22:13;;;;;;;9.23;6.68;;;;;;;17.54;nan;100352.00;5036504;28;20033;-71
2023/06/26 00:24:39;;;;;;;12.25;6.47;;;;;;;17.53;nan;100355.75;5038393;28;20015;-70
2023/06/26 00:27:04;;;;;;;13.07;7.35;;;;;;;17.48;nan;100362.94;5043499;28;20029;-71
2023/06/26 00:29:29;;;;;;;12.88;7.72;;;;;;;17.37;nan;100355.00;5036285;28;20524;-71
2023/06/26 00:31:55;;;;;;;11.15;7.70;;;;;;;17.23;nan;100348.66;5037796;28;20093;-72
2023/06/26 00:34:20;;;;;;;11.82;7.63;;;;;;;17.18;nan;100351.31;5036799;28;20060;-72
2023/06/26 00:36:46;;;;;;;11.63;7.90;;;;;;;17.26;nan;100357.97;5033597;28;20044;-72
2023/06/26 00:39:11;;;;;;;13.43;7.85;;;;;;;17.25;nan;100357.16;5039733;28;20025;-72
2023/06/26 00:41:37;;;;;;;12.88;7.88;;;;;;;17.14;nan;100351.09;5038757;28;20033;-71
2023/06/26 00:44:04;;;;;;;12.27;8.40;;;;;;;17.16;nan;100351.59;5039425;28;20476;-72
2023/06/26 00:46:30;;;;;;;13.02;7.72;;;;;;;17.13;nan;100346.81;5039214;28;20045;-72
2023/06/26 00:48:58;;;;;;;16.88;8.48;;;;;;;17.13;nan;100346.81;5040147;28;20100;-72
2023/06/26 00:51:24;;;;;;;11.40;8.27;;;;;;;17.14;nan;100348.44;5038317;28;20028;-72
2023/06/26 00:53:50;;;;;;;13.98;9.05;;;;;;;17.21;nan;100350.78;5037745;28;20022;-72
2023/06/26 00:56:17;;;;;;;13.15;8.00;;;;;;;17.21;nan;100356.09;5044419;28;20021;-72
2023/06/26 00:58:42;;;;;;;12.48;8.00;;;;;;;17.13;nan;100344.16;5038748;28;20025;-72
2023/06/26 01:01:08;;;;;;;13.25;7.80;;;;;;;17.16;nan;100340.16;5039537;28;20017;-72
2023/06/26 01:03:34;;;;;;;13.70;7.82;;;;;;;17.12;nan;100347.06;5037131;28;20020;-71
2023/06/26 01:06:00;;;;;;;13.52;8.55;;;;;;;17.04;nan;100344.97;5034879;28;20052;-71
2023/06/26 01:08:27;;;;;;;13.77;7.85;;;;;;;17.03;nan;100344.19;5037746;28;20028;-71
2023/06/26 01:10:53;;;;;;;13.43;7.80;;;;;;;16.98;nan;100333.56;5035014;28;20059;-72
2023/06/26 01:13:19;;;;;;;13.60;9.00;;;;;;;17.00;nan;100334.09;5036583;28;20005;-71
2023/06/26 01:15:46;;;;;;;15.73;8.77;;;;;;;16.96;nan;100327.69;5039104;28;20062;-71
2023/06/26 01:18:12;;;;;;;11.85;7.95;;;;;;;16.93;nan;100321.06;5074039;28;20017;-69
2023/06/26 01:20:42;;;;;;;14.30;8.75;;;;;;;16.98;nan;100328.22;5042395;28;20083;-69
2023/06/26 01:23:17;;;;;;;11.45;8.18;;;;;;;17.00;nan;100334.88;5041775;28;20040;-69
2023/06/26 01:26:07;;;;;;;13.43;8.95;;;;;;;16.98;nan;100336.22;5041716;28;20375;-69
2023/06/26 01:28:41;;;;;;;13.70;8.82;;;;;;;16.96;nan;100335.69;5040678;28;20017;-69
2023/06/26 01:31:07;;;;;;;16.52;9.07;;;;;;;16.88;nan;100325.56;5037713;28;20025;-69
2023/06/26 01:33:33;;;;;;;10.75;7.53;;;;;;;16.93;nan;100333.56;5037079;28;20016;-68
2023/06/26 01:35:58;;;;;;;14.25;9.35;;;;;;;16.97;nan;100335.38;5047885;28;20017;-69
2023/06/26 01:38:24;;;;;;;18.80;9.32;;;;;;;16.97;nan;100329.28;5037750;28;20012;-68
2023/06/26 01:40:50;;;;;;;14.80;9.15;;;;;;;16.92;nan;100326.63;5036491;28;20025;-68
2023/06/26 01:43:27;;;;;;;11.85;8.30;;;;;;;16.92;nan;100324.75;5042924;28;20514;-68
2023/06/26 01:46:01;;;;;;;14.10;8.68;;;;;;;16.93;nan;100320.28;5040761;28;20045;-68
2023/06/26 01:48:34;;;;;;;11.95;8.15;;;;;;;16.99;nan;100322.63;5040442;28;20483;-70
2023/06/26 01:51:00;;;;;;;14.32;9.43;;;;;;;16.90;nan;100307.47;5042153;28;20386;-69
2023/06/26 01:53:32;;;;;;;13.40;8.68;;;;;;;16.94;nan;100319.97;5038978;28;20025;-69
2023/06/26 01:56:07;;;;;;;14.18;9.15;;;;;;;16.94;nan;100325.31;5038471;28;20036;-69
2023/06/26 01:58:35;;;;;;;13.85;8.20;;;;;;;16.80;nan;100300.31;5040545;28;20028;-69
2023/06/26 02:01:00;;;;;;;16.60;8.82;;;;;;;16.94;nan;100316.53;5054628;28;20033;-69
2023/06/26 02:03:26;;;;;;;15.05;9.20;;;;;;;16.93;nan;100321.06;5042591;28;20095;-69
2023/06/26 02:05:51;;;;;;;13.20;8.70;;;;;;;16.91;nan;100320.53;5039653;28;21039;-71
2023/06/26 02:08:17;;;;;;;13.32;9.13;;;;;;;16.93;nan;100321.06;5040872;28;20032;-71
2023/06/26 02:10:42;;;;;;;13.27;9.05;;;;;;;16.90;nan;100312.81;5039249;28;20049;-70
2023/06/26 02:13:07;;;;;;;16.98;9.02;;;;;;;16.92;nan;100314.13;5041507;28;20023;-71
2023/06/26 02:15:33;;;;;;;13.98;8.88;;;;;;;16.73;nan;100281.94;5038073;28;20026;-71
2023/06/26 02:17:58;;;;;;;11.80;8.00;;;;;;;16.87;nan;100303.50;5039930;28;20388;-70
2023/06/26 02:20:24;;;;;;;17.15;8.63;;;;;;;16.89;nan;100321.88;5040020;28;20024;-70
2023/06/26 02:22:49;;;;;;;13.65;8.30;;;;;;;16.84;nan;100312.03;5041672;28;20041;-72
2023/06/26 02:25:15;;;;;;;13.25;8.52;;;;;;;16.88;nan;100322.91;5038098;28;20055;-72
2023/06/26 02:27:42;;;;;;;13.15;7.85;;;;;;;16.73;nan;100307.75;5042697;28;20025;-72
2023/06/26 02:30:08;;;;;;;11.10;7.93;;;;;;;16.66;nan;100304.56;5039127;28;20028;-71
2023/06/26 02:32:34;;;;;;;14.02;8.95;;;;;;;16.71;nan;100321.31;5041524;28;20475;-72
2023/06/26 02:34:59;;;;;;;24.88;8.60;;;;;;;16.64;nan;100312.81;5041718;28;20036;-71
2023/06/26 02:37:25;;;;;;;13.18;8.02;;;;;;;16.64;nan;100309.34;5041654;28;20025;-71
2023/06/26 02:39:50;;;;;;;13.25;8.05;;;;;;;16.60;nan;100311.75;5045187;28;20022;-70
2023/06/26 02:42:15;;;;;;;15.02;8.00;;;;;;;16.63;nan;100316.53;5044433;28;20395;-72
2023/06/26 02:44:41;;;;;;;13.85;8.27;;;;;;;16.52;nan;100307.78;5038978;28;20029;-71
2023/06/26 02:47:06;;;;;;;13.07;8.20;;;;;;;16.52;nan;100306.97;5039995;28;20033;-71
2023/06/26 02:49:31;;;;;;;14.05;8.25;;;;;;;16.58;nan;100311.22;5039176;28;20017;-71
2023/06/26 02:51:57;;;;;;;15.43;8.63;;;;;;;16.52;nan;100318.41;5040201;28;20025;-70
2023/06/26 02:54:22;;;;;;;11.85;7.88;;;;;;;16.58;nan;100319.19;5038785;28;20446;-72
2023/06/26 02:56:48;;;;;;;15.13;7.97;;;;;;;16.49;nan;100320.78;5039740;28;20134;-71
2023/06/26 02:59:13;;;;;;;17.40;8.25;;;;;;;16.51;nan;100324.78;5039874;28;20017;-72
2023/06/26 03:01:38;;;;;;;14.48;8.57;;;;;;;16.50;nan;100317.88;5037668;28;20083;-71
2023/06/26 03:04:04;;;;;;;17.17;8.75;;;;;;;16.52;nan;100328.22;5037610;28;20049;-71
2023/06/26 03:06:30;;;;;;;13.00;8.25;;;;;;;16.49;nan;100326.09;5036894;28;20021;-71
2023/06/26 03:08:55;;;;;;;13.27;8.07;;;;;;;16.45;nan;100323.19;5041245;28;20094;-71
2023/06/26 03:11:20;;;;;;;17.23;8.13;;;;;;;16.44;nan;100312.81;5040124;28;20070;-71
2023/06/26 03:13:46;;;;;;;15.30;8.15;;;;;;;16.43;nan;100317.34;5041327;28;20392;-72
2023/06/26 03:16:11;;;;;;;11.90;8.32;;;;;;;16.42;nan;100323.69;5040748;28;20124;-71
2023/06/26 03:18:36;;;;;;;14.50;8.50;;;;;;;16.44;nan;100324.25;5041912;28;20020;-72
2023/06/26 03:21:02;;;;;;;20.52;8.30;;;;;;;16.42;nan;100322.91;5036909;28;20432;-73
2023/06/26 03:23:27;;;;;;;14.88;9.00;;;;;;;16.43;nan;100324.53;5071027;28;20014;-72
2023/06/26 03:25:56;;;;;;;13.68;8.50;;;;;;;16.01;nan;100256.47;5038677;28;20079;-71
2023/06/26 03:28:21;;;;;;;13.80;7.87;;;;;;;16.44;nan;100326.09;5040230;28;20028;-70
2023/06/26 03:30:47;;;;;;;16.90;9.90;;;;;;;16.37;nan;100313.06;5039994;28;20022;-70
2023/06/26 03:33:12;;;;;;;21.48;9.75;;;;;;;16.46;nan;100319.47;5070011;28;20483;-70
2023/06/26 03:35:38;;;;;;;15.48;8.82;;;;;;;16.46;nan;100322.13;5038780;28;20021;-72
2023/06/26 03:38:05;;;;;;;13.35;8.27;;;;;;;16.53;nan;100327.97;5040835;28;20411;-72
2023/06/26 03:40:30;;;;;;;15.18;8.98;;;;;;;16.50;nan;100309.09;5037872;28;20514;-70
2023/06/26 03:42:55;;;;;;;15.07;8.30;;;;;;;16.55;nan;100309.09;5043684;28;20036;-74
2023/06/26 03:45:21;;;;;;;18.23;8.55;;;;;;;16.73;nan;100331.69;5033906;28;20040;-69
2023/06/26 03:47:48;;;;;;;15.30;7.97;;;;;;;16.69;nan;100320.78;5042207;28;20112;-71
2023/06/26 03:50:16;;;;;;;15.77;8.93;;;;;;;16.78;nan;100324.53;5047400;28;20356;-72
2023/06/26 03:52:41;;;;;;;13.50;8.25;;;;;;;16.87;nan;100331.97;5041902;28;20025;-70
2023/06/26 03:55:07;;;;;;;12.98;8.07;;;;;;;16.93;nan;100328.25;5037829;28;20022;-67
2023/06/26 03:57:32;;;;;;;14.40;8.50;;;;;;;17.00;nan;100331.44;5037037;28;20048;-68
2023/06/26 03:59:58;;;;;;;12.32;8.73;;;;;;;17.06;nan;100333.00;5036825;28;20024;-67
2023/06/26 04:02:23;;;;;;;14.48;8.30;;;;;;;17.10;nan;100327.94;5039666;28;20037;-68
2023/06/26 04:04:48;;;;;;;16.25;9.10;;;;;;;17.21;nan;100340.97;5035570;28;20032;-68
2023/06/26 04:07:14;;;;;;;13.82;9.38;;;;;;;17.51;nan;100379.19;5039176;28;20025;-68
2023/06/26 04:09:39;;;;;;;14.15;9.55;;;;;;;17.25;nan;100335.09;5037714;28;20053;-69
2023/06/26 04:12:06;;;;;;;21.30;9.70;;;;;;;17.32;nan;100335.59;5035072;28;20017;-69
2023/06/26 04:14:31;;;;;;;15.70;9.90;;;;;;;17.42;nan;100336.34;5037189;28;20017;-69
2023/06/26 04:16:57;;;;;;;22.55;9.75;;;;;;;17.53;nan;100346.97;5037820;28;20475;-69
2023/06/26 04:19:23;;;;;;;13.68;9.27;;;;;;;17.59;nan;100343.22;5035831;28;20014;-68
2023/06/26 04:21:48;;;;;;;15.90;9.02;;;;;;;17.63;nan;100341.59;5034683;28;20034;-69
2023/06/26 04:24:14;;;;;;;15.15;8.95;;;;;;;17.67;nan;100331.19;5035933;28;20064;-68
2023/06/26 04:26:41;;;;;;;16.30;8.50;;;;;;;17.74;nan;100340.50;5036845;28;20056;-69
2023/06/26 04:29:06;;;;;;;13.73;8.32;;;;;;;17.82;nan;100347.94;5038005;28;20402;-70
2023/06/26 04:31:32;;;;;;;15.40;8.98;;;;;;;17.81;nan;100340.19;5035014;28;20013;-70
2023/06/26 04:33:59;;;;;;;19.00;8.95;;;;;;;17.93;nan;100339.88;5038424;28;20372;-70
2023/06/26 04:36:28;;;;;;;16.15;9.40;;;;;;;17.98;nan;100337.19;5038317;28;20100;-68
2023/06/26 04:38:54;;;;;;;14.27;9.10;;;;;;;18.04;nan;100336.88;5039792;28;20510;-69
2023/06/26 04:41:20;;;;;;;16.10;9.00;;;;;;;18.18;nan;100350.38;5038568;28;20349;-68
2023/06/26 04:43:45;;;;;;;15.07;9.73;;;;;;;18.24;nan;100346.63;5034787;28;20017;-68
2023/06/26 04:46:10;;;;;;;12.65;8.85;;;;;;;18.23;nan;100336.22;5035916;28;20027;-68
2023/06/26 04:48:36;;;;;;;15.02;8.65;;;;;;;18.32;nan;100347.91;5035503;28;20014;-69
2023/06/26 04:51:01;;;;;;;17.55;8.63;;;;;;;18.31;nan;100337.50;5040288;28;20017;-69
2023/06/26 04:53:26;;;;;;;16.20;8.82;;;;;;;18.40;nan;100349.97;5042361;28;20025;-70
2023/06/26 04:55:52;;;;;;;13.13;9.07;;;;;;;18.53;nan;100353.84;5039425;28;20025;-70
2023/06/26 04:58:19;;;;;;;17.15;9.05;;;;;;;18.58;nan;100351.19;5040745;28;20010;-68
2023/06/26 05:00:44;;;;;;;15.70;9.00;;;;;;;18.71;nan;100360.41;5039996;28;20024;-69
2023/06/26 05:03:12;;;;;;;15.63;8.65;;;;;;;18.68;nan;100347.63;5041121;28;20029;-69
2023/06/26 05:05:38;;;;;;;13.65;8.15;;;;;;;18.77;nan;100361.16;5038711;28;20056;-72
2023/06/26 05:08:22;;;;;;;14.48;9.75;;;;;;;18.77;nan;100364.66;5036170;28;20089;-69
2023/06/26 05:10:47;;;;;;;15.35;9.05;;;;;;;18.72;nan;100375.31;5039012;28;20057;-71
2023/06/26 05:13:19;;;;;;;14.45;9.38;;;;;;;18.75;nan;100361.44;5038113;28;20047;-71
2023/06/26 05:15:45;;;;;;;16.55;9.40;;;;;;;18.88;nan;100378.69;5039035;28;20143;-71
2023/06/26 05:18:10;;;;;;;15.70;9.60;;;;;;;18.82;nan;100369.13;5036715;28;20411;-71
2023/06/26 05:20:36;;;;;;;16.63;9.80;;;;;;;18.82;nan;100369.94;5038485;28;20029;-71
2023/06/26 05:23:02;;;;;;;16.85;10.30;;;;;;;18.98;nan;100385.78;5037640;28;20033;-70
2023/06/26 05:25:29;;;;;;;18.38;10.20;;;;;;;19.00;nan;100381.78;5036378;28;20017;-70
2023/06/26 05:27:55;;;;;;;16.75;9.45;;;;;;;19.05;nan;100373.72;5068031;28;20120;-71
2023/06/26 05:30:21;;;;;;;14.00;9.48;;;;;;;19.17;nan;100383.22;5037721;28;20502;-72
2023/06/26 05:32:48;;;;;;;15.88;9.38;;;;;;;19.26;nan;100390.31;5035852;28;20025;-72
2023/06/26 05:35:14;;;;;;;16.48;9.90;;;;;;;19.24;nan;100378.34;5038912;28;20023;-72
2023/06/26 05:37:41;;;;;;;13.80;9.48;;;;;;;19.31;nan;100384.94;5043992;28;20013;-70
2023/06/26 05:40:07;;;;;;;16.55;10.10;;;;;;;19.28;nan;100379.38;5036769;28;20013;-71
2023/06/26 05:42:33;;;;;;;16.55;9.77;;;;;;;19.40;nan;100398.47;5035239;28;20466;-72
2023/06/26 05:44:59;;;;;;;14.27;9.00;;;;;;;19.43;nan;100389.09;5032139;28;20656;-71
2023/06/26 05:47:24;;;;;;;18.17;9.82;;;;;;;19.43;nan;100381.06;5037552;28;20021;-72
2023/06/26 05:49:50;;;;;;;16.05;9.90;;;;;;;19.48;nan;100376.47;5038089;28;20025;-71
2023/06/26 05:52:15;;;;;;;15.93;9.50;;;;;;;19.57;nan;100387.31;5040126;28;20022;-72
2023/06/26 05:54:41;;;;;;;15.65;9.50;;;;;;;19.57;nan;100379.31;5037294;28;20036;-73
2023/06/26 05:57:07;;;;;;;17.42;10.02;;;;;;;19.59;nan;100382.50;5042922;28;20025;-72
2023/06/26 05:59:32;;;;;;;16.85;9.63;;;;;;;19.75;nan;100386.59;5036132;28;20384;-71
2023/06/26 06:01:58;;;;;;;14.77;9.57;;;;;;;19.84;nan;100388.63;5035561;28;20095;-71
2023/06/26 06:04:23;;;;;;;13.50;8.10;;;;;;;19.88;nan;100379.75;5041126;28;20028;-71
2023/06/26 06:06:49;;;;;;;15.23;9.82;;;;;;;19.96;nan;100397.03;5037848;28;21268;-72
2023/06/26 06:09:14;;;;;;;16.50;9.50;;;;;;;19.96;nan;100394.34;5037563;28;20475;-72
2023/06/26 06:11:40;;;;;;;15.18;9.45;;;;;;;19.98;nan;100392.19;5030142;28;20021;-73
2023/06/26 06:14:05;;;;;;;15.60;9.00;;;;;;;20.04;nan;100396.41;5065270;28;20017;-72
2023/06/26 06:16:31;;;;;;;16.42;9.23;;;;;;;20.01;nan;100390.81;5044876;28;20490;-73
2023/06/26 06:18:56;;;;;;;18.52;9.05;;;;;;;20.09;nan;100396.31;5038955;28;20096;-73
2023/06/26 06:21:21;;;;;;;15.20;9.23;;;;;;;20.14;nan;100388.22;5035304;28;20028;-73
2023/06/26 06:23:47;;;;;;;13.23;9.35;;;;;;;20.14;nan;100380.22;5038801;28;20127;-73
2023/06/26 06:26:12;;;;;;;12.93;8.90;;;;;;;20.22;nan;100389.44;5036212;28;20034;-73
2023/06/26 06:28:38;;;;;;;15.18;9.27;;;;;;;20.31;nan;100397.63;5037360;28;20025;-72
2023/06/26 06:31:04;;;;;;;23.45;11.55;;;;;;;20.35;nan;100385.25;5037024;28;20021;-72
2023/06/26 06:33:29;;;;;;;14.40;9.30;;;;;;;20.36;nan;100381.50;5043927;28;20035;-71
2023/06/26 06:35:54;;;;;;;14.63;8.65;;;;;;;20.51;nan;100383.13;5037293;28;20068;-70
2023/06/26 06:38:20;;;;;;;11.23;8.27;;;;;;;20.51;nan;100383.13;5037847;28;20021;-69
2023/06/26 06:40:45;;;;;;;15.48;8.32;;;;;;;20.56;nan;100386.53;5038893;28;20048;-69
2023/06/26 06:43:11;;;;;;;13.07;8.18;;;;;;;20.60;nan;100386.78;5036376;28;20036;-71
2023/06/26 06:45:37;;;;;;;13.27;8.75;;;;;;;;;;5035917;28;20963;-70
2023/06/26 06:48:03;;;;;;;12.95;8.20;;;;;;;20.69;nan;100376.22;5043858;28;20031;-70
2023/06/26 06:50:29;;;;;;;10.95;7.63;;;;;;;20.81;nan;100382.69;5036723;28;20484;-70
2023/06/26 06:52:54;;;;;;;10.77;8.27;;;;;;;20.86;nan;100375.66;5034522;28;20025;-70
2023/06/26 06:55:20;;;;;;;16.00;9.35;;;;;;;20.79;nan;100371.47;5038491;28;20024;-70
2023/06/26 06:57:45;;;;;;;18.45;8.38;;;;;;;20.91;nan;100380.91;5039107;28;20017;-71
2023/06/26 07:00:14;;;;;;;13.15;8.25;;;;;;;20.94;nan;100375.75;5036887;28;20013;-70
2023/06/26 07:02:41;;;;;;;13.98;8.27;;;;;;;21.03;nan;100383.91;5033801;28;20029;-70
2023/06/26 07:05:07;;;;;;;12.65;7.53;;;;;;;21.07;nan;100381.41;5039258;28;20053;-70
2023/06/26 07:07:34;;;;;;;11.30;7.75;;;;;;;21.09;nan;100379.25;5037807;28;20025;-70
2023/06/26 07:10:04;;;;;;;15.65;8.23;;;;;;;21.15;nan;100378.88;5034139;28;20038;-70
2023/06/26 07:12:30;;;;;;;13.98;7.47;;;;;;;21.23;nan;100375.47;5035821;28;20032;-70
2023/06/26 07:14:56;;;;;;;11.15;7.60;;;;;;;21.27;nan;100373.03;5033979;28;20399;-70
2023/06/26 07:17:21;;;;;;;13.07;7.78;;;;;;;21.40;nan;100385.63;5036720;28;20029;-71
2023/06/26 07:19:48;;;;;;;14.27;7.60;;;;;;;21.43;nan;100373.56;5034363;28;20027;-71
2023/06/26 07:22:13;;;;;;;13.88;7.68;;;;;;;21.53;nan;100369.88;5037118;28;20041;-70
2023/06/26 07:24:39;;;;;;;16.17;7.85;;;;;;;21.57;nan;100379.72;5037955;28;20698;-69
2023/06/26 07:27:04;;;;;;;11.73;8.70;;;;;;;21.58;nan;100375.94;5033762;28;20021;-70
2023/06/26 07:29:29;;;;;;;11.75;8.43;;;;;;;21.67;nan;100373.34;5034567;28;20021;-69
2023/06/26 07:31:55;;;;;;;17.83;7.95;;;;;;;21.81;nan;100381.34;5034522;28;20029;-69
2023/06/26 07:34:20;;;;;;;10.93;8.18;;;;;;;21.83;nan;100377.28;5036799;28;20021;-69
2023/06/26 07:36:46;;;;;;;20.48;7.95;;;;;;;21.90;nan;100376.06;5032529;28;20047;-69
2023/06/26 07:39:11;;;;;;;10.70;7.30;;;;;;;21.94;nan;100375.19;5037238;28;20028;-69
2023/06/26 07:41:36;;;;;;;11.13;7.45;;;;;;;22.06;nan;100378.13;5036579;28;20025;-69
2023/06/26 07:44:02;;;;;;;14.52;7.80;;;;;;;22.21;nan;100389.63;5031482;28;20104;-70
2023/06/26 07:46:27;;;;;;;11.63;7.15;;;;;;;22.27;nan;100385.75;5034224;28;20025;-69
2023/06/26 07:48:53;;;;;;;10.15;7.03;;;;;;;22.33;nan;100384.53;5033458;28;20108;-69
2023/06/26 07:51:19;;;;;;;11.32;7.28;;;;;;;22.41;nan;100377.63;5035412;28;20406;-69
2023/06/26 07:53:44;;;;;;;9.70;6.70;;;;;;;22.50;nan;100381.16;5034439;28;20128;-68
2023/06/26 07:56:10;;;;;;;9.30;6.78;;;;;;;22.59;nan;100383.91;5031159;28;20013;-68
2023/06/26 07:58:35;;;;;;;16.90;7.75;;;;;;;22.73;nan;100379.28;5036255;28;20013;-68
2023/06/26 08:01:01;;;;;;;11.35;7.07;;;;;;;;;;5036388;28;20120;-69
2023/06/26 08:03:26;;;;;;;11.40;7.20;;;;;;;22.88;nan;100384.25;5034526;28;20057;-69
2023/06/26 08:05:52;;;;;;;10.10;7.60;;;;;;;22.91;nan;100375.59;5032619;28;20036;-69
2023/06/26 08:08:17;;;;;;;13.10;6.97;;;;;;;23.11;nan;100379.66;5034950;28;20168;-69
2023/06/26 08:10:43;;;;;;;8.50;6.45;;;;;;;23.14;nan;100373.66;5037786;28;20045;-69
2023/06/26 08:13:08;;;;;;;11.57;6.55;;;;;;;23.26;nan;100381.13;5035714;28;20017;-69
2023/06/26 08:15:34;;;;;;;7.80;5.95;;;;;;;23.30;nan;100371.38;5034089;28;20009;-69
2023/06/26 08:17:59;;;;;;;15.80;6.70;;;;;;;23.44;nan;100370.44;5036131;28;20018;-69
2023/06/26 08:20:25;;;;;;;12.35;6.50;;;;;;;23.62;nan;100376.66;5037629;28;20013;-69
2023/06/26 08:22:52;;;;;;;11.02;6.15;;;;;;;23.67;nan;100379.22;5032426;28;20029;-69
2023/06/26 08:25:17;;;;;;;10.20;5.85;;;;;;;23.77;nan;100378.94;5036395;28;20158;-70
2023/06/26 08:27:43;;;;;;;10.60;6.10;;;;;;;23.88;nan;100385.59;5034253;28;20543;-70
2023/06/26 08:30:09;;;;;;;8.15;5.65;;;;;;;23.95;nan;100385.94;5034175;28;20018;-70
2023/06/26 08:32:34;;;;;;;8.70;6.07;;;;;;;23.95;nan;100367.09;5033565;28;20021;-70
2023/06/26 08:35:00;;;;;;;8.48;5.43;;;;;;;24.05;nan;100378.66;5032654;28;20383;-71
2023/06/26 08:37:25;;;;;;;6.82;5.47;;;;;;;24.04;nan;100366.28;5032809;28;20032;-72
2023/06/26 08:39:51;;;;;;;7.97;5.63;;;;;;;24.20;nan;100376.28;5033965;28;20108;-72
2023/06/26 08:42:16;;;;;;;7.97;5.32;;;;;;;24.26;nan;100370.75;5032309;28;20072;-70
2023/06/26 08:44:42;;;;;;;9.15;5.18;;;;;;;24.40;nan;100377.53;5040483;28;20017;-71
2023/06/26 08:47:10;;;;;;;9.05;4.90;;;;;;;24.63;nan;100380.84;5033790;28;20361;-68
2023/06/26 08:50:08;;;;;;;8.85;5.22;;;;;;;24.63;nan;100375.47;5035857;28;20024;-69
2023/06/26 08:52:37;;;;;;;6.82;4.90;;;;;;;24.61;nan;100375.03;5034751;28;20024;-69
2023/06/26 08:55:06;;;;;;;;;;;;;;;24.71;nan;100367.69;5035605;28;20035;-69
2023/06/26 08:57:32;;;;;;;;;;;;;;;24.82;nan;100372.41;5033094;28;19909;-70
2023/06/26 08:59:57;;;;;;;6.50;4.75;;;;;;;24.87;nan;100354.50;5032928;28;19927;-69
2023/06/26 09:02:23;;;;;;;6.78;4.70;;;;;;;24.95;nan;100362.56;5035289;28;20431;-70
2023/06/26 09:04:50;;;;;;;6.40;4.93;;;;;;;24.99;nan;100360.78;5034032;28;20096;-70
2023/06/26 09:07:16;;;;;;;8.50;4.65;;;;;;;25.01;nan;100347.00;5033804;28;20104;-70
2023/06/26 09:09:41;;;;;;;6.55;4.70;;;;;;;25.21;nan;100359.78;5031665;28;20499;-73
2023/06/26 09:12:08;;;;;;;7.05;5.05;;;;;;;25.19;nan;100355.84;5031383;28;20032;-70
2023/06/26 09:14:35;;;;;;;10.48;4.78;;;;;;;25.24;nan;100351.06;5029579;28;20097;-71
2023/06/26 09:17:00;;;;;;;8.40;4.78;;;;;;;25.34;nan;100363.38;5030491;28;20036;-71
2023/06/26 09:19:29;;;;;;;6.28;4.38;;;;;;;25.23;nan;100333.28;5030275;28;20025;-70
2023/06/26 09:21:55;;;;;;;8.98;4.55;;;;;;;25.39;nan;100357.78;5033874;28;20144;-70
2023/06/26 09:24:21;;;;;;;6.30;4.40;;;;;;;25.39;nan;100348.91;5032870;28;20029;-71
2023/06/26 09:26:48;;;;;;;11.45;4.63;;;;;;;25.45;nan;100344.91;5036270;28;20056;-70
2023/06/26 09:29:14;;;;;;;6.70;4.40;;;;;;;25.62;nan;100347.50;5026893;28;20036;-69
2023/06/26 09:31:44;;;;;;;6.60;4.50;;;;;;;25.66;nan;100337.63;5032118;28;20020;-69
2023/06/26 09:34:10;;;;;;;6.60;4.32;;;;;;;25.87;nan;100348.47;5033962;28;20529;-72
2023/06/26 09:36:36;;;;;;;10.00;4.75;;;;;;;25.89;nan;100350.84;5030700;28;20784;-70
2023/06/26 09:39:08;;;;;;;7.35;4.22;;;;;;;25.98;nan;100356.97;5039536;28;20026;-71
2023/06/26 09:41:34;;;;;;;7.38;4.70;;;;;;;25.98;nan;100354.25;5038983;28;20388;-71
2023/06/26 09:44:02;;;;;;;9.05;4.55;;;;;;;25.98;nan;100343.47;5039828;28;20033;-70
2023/06/26 09:46:29;;;;;;;8.95;4.68;;;;;;;26.15;nan;100347.16;5036111;28;20032;-70
2023/06/26 09:49:05;;;;;;;6.30;4.28;;;;;;;26.19;nan;100356.94;5036608;28;20029;-67
2023/06/26 09:51:32;;;;;;;8.65;4.25;;;;;;;26.15;nan;100347.16;5038345;28;20031;-70
2023/06/26 09:53:58;;;;;;;7.30;4.60;;;;;;;26.19;nan;100346.13;5037196;28;20539;-70
2023/06/26 09:56:23;;;;;;;6.13;4.22;;;;;;;26.23;nan;100341.66;5037919;28;20112;-69
2023/06/26 09:58:49;;;;;;;9.38;4.32;;;;;;;26.20;nan;100346.94;5022937;28;20017;-69
2023/06/26 10:01:14;;;;;;;5.68;4.32;;;;;;;26.23;nan;100341.66;5027447;28;20563;-69
2023/06/26 10:03:40;;;;;;;9.05;4.38;;;;;;;26.29;nan;100350.31;5033251;28;20110;-71
2023/06/26 10:06:08;;;;;;;6.97;4.00;;;;;;;26.29;nan;100342.22;5039422;28;20044;-69
2023/06/26 10:08:37;;;;;;;6.22;4.35;;;;;;;26.38;nan;100351.03;5038420;28;20387;-70
2023/06/26 10:11:02;;;;;;;7.27;4.40;;;;;;;26.41;nan;100339.59;5065412;28;20140;-69
2023/06/26 10:13:34;;;;;;;4.78;4.18;;;;;;;26.45;nan;100343.19;5035555;28;20108;-70
2023/06/26 10:16:01;;;;;;;8.68;4.43;;;;;;;26.58;nan;100344.06;5035968;28;20097;-71
2023/06/26 10:18:28;;;;;;;7.82;4.25;;;;;;;26.64;nan;100339.22;5036555;28;20017;-71
2023/06/26 10:20:56;;;;;;;7.47;4.53;;;;;;;26.71;nan;100342.16;5035875;28;20195;-69
2023/06/26 10:23:23;;;;;;;5.30;4.05;;;;;;;26.75;nan;100337.66;5036230;28;20025;-70
2023/06/26 10:25:51;;;;;;;6.82;4.40;;;;;;;26.75;nan;100329.56;5038826;28;20029;-70
2023/06/26 10:28:18;;;;;;;5.75;4.03;;;;;;;26.78;nan;100342.38;5033634;28;20039;-69
2023/06/26 10:30:46;;;;;;;6.53;4.18;;;;;;;26.83;nan;100333.28;5035058;28;20407;-70
2023/06/26 10:33:12;;;;;;;5.70;4.32;;;;;;;26.87;nan;100328.78;5036741;28;20018;-72
2023/06/26 10:35:43;;;;;;;5.85;4.28;;;;;;;26.96;nan;100332.19;5037310;28;20041;-68
2023/06/26 10:38:09;;;;;;;4.88;4.00;;;;;;;27.03;nan;100345.09;5028495;28;20033;-69
2023/06/26 10:40:42;;;;;;;5.65;4.32;;;;;;;27.03;nan;100329.69;5030445;28;20021;-69
2023/06/26 10:43:09;;;;;;;5.80;4.40;;;;;;;27.05;nan;100323.94;5039968;28;20505;-70
2023/06/26 10:45:35;;;;;;;7.38;4.32;;;;;;;27.19;nan;100321.72;5031904;28;20061;-69
2023/06/26 10:48:01;;;;;;;9.65;4.25;;;;;;;27.27;nan;100320.81;5026276;28;21084;-71
2023/06/26 10:50:26;;;;;;;7.30;4.32;;;;;;;27.22;nan;100323.72;5034105;28;20021;-72
2023/06/26 10:53:13;;;;;;;6.63;4.50;;;;;;;27.20;nan;100315.19;5035960;28;20021;-70
2023/06/26 10:55:46;;;;;;;8.07;4.30;;;;;;;27.23;nan;100311.81;5034842;28;20021;-71
2023/06/26 10:58:28;;;;;;;5.88;4.05;;;;;;;27.41;nan;100325.06;5041336;28;20012;-69
2023/06/26 11:01:14;;;;;;;6.15;4.10;;;;;;;27.47;nan;100326.44;5034436;28;20434;-70
2023/06/26 11:04:03;;;;;;;6.57;4.50;;;;;;;27.47;nan;100321.81;5033579;28;20036;-69
2023/06/26 11:06:30;;;;;;;5.55;4.38;;;;;;;27.54;nan;100329.34;5027765;28;20108;-68
2023/06/26 11:09:04;;;;;;;9.65;4.47;;;;;;;27.57;nan;100317.84;5025875;28;20018;-68
2023/06/26 11:11:52;;;;;;;6.03;3.80;;;;;;;27.58;nan;100320.22;5032817;28;20103;-68
2023/06/26 11:14:22;;;;;;;9.25;4.25;;;;;;;27.61;nan;100307.91;5035341;28;20035;-67
2023/06/26 11:16:49;;;;;;;5.78;4.22;;;;;;;27.61;nan;100296.28;5034966;28;20032;-68
2023/06/26 11:19:16;;;;;;;5.53;4.10;;;;;;;27.73;nan;100310.59;5032332;28;20511;-68
2023/06/26 11:21:42;;;;;;;10.82;4.80;;;;;;;27.74;nan;100314.06;5034663;28;20039;-68
2023/06/26 11:24:07;;;;;;;5.72;4.00;;;;;;;27.69;nan;100298.88;5034143;28;20013;-68
2023/06/26 11:26:44;;;;;;;8.07;4.43;;;;;;;27.77;nan;100305.25;5030346;28;20413;-68
2023/06/26 11:29:11;;;;;;;5.90;4.20;;;;;;;27.74;nan;100300.53;5031349;28;20021;-68
2023/06/26 11:31:38;;;;;;;5.05;3.78;;;;;;;27.76;nan;100311.81;5036614;28;20017;-70
2023/06/26 11:34:10;;;;;;;6.72;4.20;;;;;;;27.65;nan;100302.59;5034287;28;20091;-68